Time;durP1;ratioP1;P1;durP2;ratioP2;P2;SDS_P1;SDS_P2;PMS_P1;PMS_P2;Temp;Humidity;BMP_temperature;BMP_pressure;BME280_temperature;BME280_humidity;BME280_pressure;Samples;Min_cycle;Max_cycle;Signal;HPM_P1;HPM_P2
2022/09/01 00:00:32;;;;;;;4.15;1.10;;;;;;;17.95;54.25;101751.81;5055904;28;20036;-84
2022/09/01 00:02:57;;;;;;;2.53;0.93;;;;;;;17.95;54.24;101750.97;5066139;28;20020;-84
2022/09/01 00:05:23;;;;;;;4.65;1.10;;;;;;;17.95;53.79;101746.56;5053052;28;20110;-84
2022/09/01 00:07:49;;;;;;;1.58;0.70;;;;;;;17.99;53.79;101755.69;5064609;28;20040;-84
2022/09/01 00:10:14;;;;;;;2.97;1.45;;;;;;;18.01;53.99;101758.16;5062494;28;20028;-84
2022/09/01 00:12:40;;;;;;;1.90;0.90;;;;;;;18.04;54.20;101755.13;5064752;28;20980;-84
2022/09/01 00:15:09;;;;;;;1.27;0.88;;;;;;;18.04;54.43;101750.69;5047574;28;20020;-84
2022/09/01 00:17:35;;;;;;;3.05;1.00;;;;;;;18.07;54.55;101755.59;5052219;28;20036;-83
2022/09/01 00:20:01;;;;;;;2.10;0.90;;;;;;;17.98;53.83;101754.06;5064813;28;20825;-84
2022/09/01 00:22:26;;;;;;;2.53;1.05;;;;;;;17.96;53.93;101747.38;5064754;28;20079;-84
2022/09/01 00:24:52;;;;;;;1.77;1.08;;;;;;;17.96;54.02;101752.63;5063979;28;20047;-84
2022/09/01 00:27:18;;;;;;;2.17;0.82;;;;;;;17.96;54.20;101744.75;5064960;28;20032;-83
2022/09/01 00:29:43;;;;;;;3.53;0.95;;;;;;;17.94;54.48;101749.38;5060100;28;20028;-84
2022/09/01 00:32:10;;;;;;;3.95;2.00;;;;;;;17.95;54.95;101761.47;5070166;28;20392;-84
2022/09/01 00:34:35;;;;;;;2.75;1.38;;;;;;;17.93;55.41;101755.59;5051939;28;20404;-83
2022/09/01 00:37:01;;;;;;;3.45;1.02;;;;;;;17.91;55.80;101761.03;5059886;28;20039;-84
2022/09/01 00:39:26;;;;;;;2.03;1.00;;;;;;;17.89;55.75;101758.59;5042960;28;20059;-84
2022/09/01 00:41:52;;;;;;;4.10;1.65;;;;;;;17.84;56.15;101755.69;5063399;28;20024;-84
2022/09/01 00:44:25;;;;;;;4.05;0.90;;;;;;;17.81;56.41;101760.47;5050989;28;20032;-84
2022/09/01 00:46:54;;;;;;;2.70;0.80;;;;;;;17.79;56.53;101763.25;5059991;28;20026;-83
2022/09/01 00:49:34;;;;;;;2.47;0.80;;;;;;;17.77;56.56;101761.81;5052476;28;20111;-84
2022/09/01 00:52:14;;;;;;;2.72;1.20;;;;;;;17.74;56.49;101756.94;5080754;28;20036;-83
2022/09/01 00:54:44;;;;;;;3.67;1.02;;;;;;;17.74;56.72;101756.94;5066327;28;20036;-84
2022/09/01 00:57:11;;;;;;;2.88;1.23;;;;;;;17.71;56.72;101753.66;5052380;28;20621;-84
2022/09/01 00:59:46;;;;;;;1.13;0.52;;;;;;;17.70;56.71;101749.41;5066376;28;20385;-84
2022/09/01 01:02:12;;;;;;;2.63;1.02;;;;;;;17.69;56.88;101752.22;5058669;28;20032;-82
2022/09/01 01:04:37;;;;;;;8.85;1.20;;;;;;;17.67;56.86;101747.16;5066544;28;20032;-84
2022/09/01 01:07:03;;;;;;;2.17;1.00;;;;;;;17.65;56.72;101745.69;5047320;28;20035;-84
2022/09/01 01:09:37;;;;;;;2.47;0.77;;;;;;;17.59;57.05;101741.97;5068565;28;20146;-84
2022/09/01 01:12:04;;;;;;;3.53;0.95;;;;;;;17.57;57.10;101740.53;5063355;28;20074;-84
2022/09/01 01:14:31;;;;;;;4.13;1.30;;;;;;;17.54;57.49;101744.34;5047158;28;20139;-83
2022/09/01 01:16:58;;;;;;;2.80;1.00;;;;;;;17.48;58.03;101747.69;5054421;28;20428;-84
2022/09/01 01:25:06;;;;;;;1.85;1.10;;;;;;;17.33;58.69;101758.16;5077018;28;20077;-84
2022/09/01 01:27:34;;;;;;;3.40;0.98;;;;;;;17.25;58.93;101745.94;5049379;28;20044;-84
2022/09/01 01:30:03;;;;;;;2.45;0.88;;;;;;;17.24;58.78;101748.72;5049735;28;20065;-84
2022/09/01 01:32:29;;;;;;;6.38;0.82;;;;;;;17.22;58.90;101754.13;5059286;28;20020;-84
2022/09/01 01:34:56;;;;;;;5.43;1.13;;;;;;;17.17;59.32;101759.09;5049070;28;20075;-84
2022/09/01 01:37:23;;;;;;;1.67;0.90;;;;;;;17.13;59.46;101752.56;5059360;28;20119;-84
2022/09/01 01:39:50;;;;;;;3.17;1.00;;;;;;;17.09;59.62;101754.72;5058835;28;20032;-84
2022/09/01 01:42:16;;;;;;;2.90;1.00;;;;;;;17.03;60.04;101752.81;5062154;28;20674;-84
2022/09/01 01:44:43;;;;;;;2.78;0.80;;;;;;;16.98;60.34;101755.13;5063317;28;20024;-83
2022/09/01 01:47:11;;;;;;;1.60;0.80;;;;;;;16.95;60.57;101754.66;5062962;28;20144;-84
2022/09/01 01:49:42;;;;;;;4.00;1.58;;;;;;;16.91;60.54;101752.41;5051865;28;20032;-84
2022/09/01 01:52:13;;;;;;;1.33;0.82;;;;;;;16.87;60.58;101751.13;5047879;28;20031;-84
2022/09/01 01:54:40;;;;;;;2.55;0.90;;;;;;;16.83;61.00;101756.88;5063756;28;20032;-84
2022/09/01 01:57:07;;;;;;;1.75;0.98;;;;;;;16.82;61.10;101749.97;5061421;28;20031;-84
2022/09/01 01:59:32;;;;;;;1.75;0.90;;;;;;;16.80;61.28;101754.56;5049907;28;20032;-83
2022/09/01 02:01:59;;;;;;;2.67;1.00;;;;;;;16.77;61.45;101758.38;5051190;28;20020;-84
2022/09/01 02:04:29;;;;;;;2.47;1.05;;;;;;;16.72;61.68;101758.06;5046419;28;20036;-83
2022/09/01 02:06:55;;;;;;;3.15;0.93;;;;;;;16.62;62.33;101766.16;5050825;28;20031;-84
2022/09/01 02:09:22;;;;;;;2.10;0.93;;;;;;;16.57;62.55;101765.84;5063294;28;20024;-84
2022/09/01 02:11:52;;;;;;;4.47;1.27;;;;;;;16.54;62.76;101761.78;5062582;28;20906;-83
2022/09/01 02:14:20;;;;;;;1.73;0.82;;;;;;;16.54;62.83;101758.34;5076804;28;20043;-84
2022/09/01 02:16:45;;;;;;;2.67;1.13;;;;;;;16.52;63.09;101758.50;5044187;28;20024;-84
2022/09/01 02:19:11;;;;;;;3.60;0.80;;;;;;;16.52;62.96;101760.31;5059082;28;20028;-82
2022/09/01 02:21:37;;;;;;;2.03;1.10;;;;;;;16.53;63.10;101764.56;5049883;28;20036;-83
2022/09/01 02:24:07;;;;;;;3.10;1.33;;;;;;;16.52;63.02;101755.09;5046417;28;20023;-83
2022/09/01 02:26:38;;;;;;;6.40;1.27;;;;;;;16.50;63.07;101760.50;5063042;28;20024;-84
2022/09/01 02:29:08;;;;;;;5.38;1.17;;;;;;;16.50;63.21;101754.41;5051139;28;20032;-84
2022/09/01 02:31:39;;;;;;;2.40;1.20;;;;;;;16.47;63.14;101760.81;5058894;28;20452;-84
2022/09/01 02:34:09;;;;;;;5.75;1.25;;;;;;;16.42;63.35;101757.09;5052225;28;20028;-84
2022/09/01 02:36:46;;;;;;;2.08;1.13;;;;;;;16.38;63.46;101759.22;5062625;28;20054;-84
2022/09/01 02:39:26;;;;;;;3.88;1.20;;;;;;;16.33;63.59;101753.69;5059201;28;20042;-84
2022/09/01 02:41:52;;;;;;;2.45;1.25;;;;;;;16.29;63.62;101758.47;5049698;28;20754;-84
2022/09/01 02:44:22;;;;;;;2.92;1.40;;;;;;;16.23;63.82;101747.84;5065696;28;20746;-83
2022/09/01 02:46:49;;;;;;;4.55;1.20;;;;;;;16.21;63.82;101753.25;5058711;28;20032;-83
2022/09/01 02:49:23;;;;;;;2.72;1.10;;;;;;;16.20;63.79;101751.63;5056178;28;20096;-84
2022/09/01 02:51:52;;;;;;;3.13;1.20;;;;;;;16.19;63.89;101751.81;5061678;28;20028;-84
2022/09/01 02:54:23;;;;;;;2.03;1.15;;;;;;;16.19;63.90;101757.84;5067285;28;20510;-84
2022/09/01 02:56:49;;;;;;;3.45;1.25;;;;;;;16.18;63.90;101751.00;5063084;28;20028;-84
2022/09/01 02:59:20;;;;;;;3.33;1.25;;;;;;;16.17;64.05;101748.53;5072461;28;20039;-83
2022/09/01 03:01:48;;;;;;;2.85;1.20;;;;;;;16.13;64.13;101756.72;5069005;28;20629;-83
2022/09/01 03:04:16;;;;;;;3.28;1.35;;;;;;;16.10;64.43;101753.63;5050597;28;20054;-84
2022/09/01 03:06:42;;;;;;;2.65;1.40;;;;;;;16.05;64.39;101758.53;5066662;28;20116;-83
2022/09/01 03:09:10;;;;;;;3.85;1.00;;;;;;;15.96;64.69;101750.72;5056100;28;20128;-83
2022/09/01 03:11:39;;;;;;;3.17;1.50;;;;;;;15.89;65.06;101744.53;5061545;28;20029;-84
2022/09/01 03:14:06;;;;;;;4.15;1.40;;;;;;;15.84;65.04;101748.63;5051650;28;20094;-84
2022/09/01 03:16:32;;;;;;;4.25;1.52;;;;;;;15.82;65.35;101753.22;5065432;28;20031;-84
2022/09/01 03:18:59;;;;;;;2.63;1.15;;;;;;;15.77;65.39;101754.53;5064420;28;20366;-83
2022/09/01 03:21:25;;;;;;;3.13;1.50;;;;;;;15.78;65.46;101757.97;5047309;28;20044;-81
2022/09/01 03:23:51;;;;;;;2.95;1.50;;;;;;;15.71;65.71;101755.19;5069744;28;20046;-84
2022/09/01 03:26:20;;;;;;;3.47;1.63;;;;;;;15.68;65.61;101760.72;5070587;28;20032;-82
2022/09/01 03:28:48;;;;;;;4.45;1.60;;;;;;;15.63;65.71;101762.22;5049375;28;20025;-84
2022/09/01 03:31:17;;;;;;;3.03;1.58;;;;;;;15.63;65.68;101754.38;5049186;28;20032;-84
2022/09/01 03:33:43;;;;;;;3.92;1.58;;;;;;;15.62;65.56;101764.03;5060942;28;20524;-84
2022/09/01 03:36:20;;;;;;;4.60;1.45;;;;;;;15.60;65.73;101760.75;5047573;28;20119;-82
2022/09/01 03:38:47;;;;;;;6.22;1.55;;;;;;;15.57;66.21;101756.66;5050420;28;20033;-84
2022/09/01 03:41:16;;;;;;;4.20;1.40;;;;;;;15.55;66.08;101765.66;5048319;28;20027;-84
2022/09/01 03:43:43;;;;;;;2.40;1.10;;;;;;;15.52;65.94;101755.53;5059255;28;20050;-83
2022/09/01 03:46:14;;;;;;;5.07;1.55;;;;;;;15.52;65.79;101758.13;5050959;28;20028;-83
2022/09/01 03:48:41;;;;;;;3.45;1.70;;;;;;;15.49;66.22;101753.25;5085238;28;20126;-82
2022/09/01 03:51:08;;;;;;;4.10;1.70;;;;;;;15.47;65.96;101750.81;5048064;28;20032;-83
2022/09/01 03:53:36;;;;;;;4.30;2.03;;;;;;;15.47;65.96;101750.00;5049090;28;20085;-83
2022/09/01 03:56:04;;;;;;;3.63;1.85;;;;;;;15.46;66.19;101745.72;5043787;28;20028;-84
2022/09/01 03:58:31;;;;;;;4.05;1.77;;;;;;;15.43;66.18;101754.72;5068209;28;20745;-83
2022/09/01 04:01:00;;;;;;;2.45;1.38;;;;;;;15.42;66.51;101749.66;5051876;28;20043;-83
2022/09/01 04:03:30;;;;;;;3.42;1.15;;;;;;;15.38;66.46;101749.97;5060896;28;20111;-84
2022/09/01 04:05:58;;;;;;;2.47;1.60;;;;;;;15.37;66.58;101752.78;5050182;28;20111;-84
2022/09/01 04:08:28;;;;;;;5.00;2.03;;;;;;;15.36;66.61;101738.88;5042514;28;20036;-83
2022/09/01 04:10:54;;;;;;;3.33;1.27;;;;;;;15.34;66.57;101743.47;5059559;28;20032;-84
2022/09/01 04:13:29;;;;;;;3.53;1.85;;;;;;;15.32;66.94;101745.44;5050269;28;20115;-83
2022/09/01 04:15:56;;;;;;;3.38;1.52;;;;;;;15.30;67.01;101750.00;5065630;28;20038;-83
2022/09/01 04:18:23;;;;;;;3.65;1.50;;;;;;;15.22;67.36;101747.41;5047607;28;20070;-84
2022/09/01 04:20:57;;;;;;;3.97;1.35;;;;;;;15.16;67.72;101748.03;5078068;28;20544;-83
2022/09/01 04:23:35;;;;;;;3.90;1.70;;;;;;;15.10;67.78;101746.88;5067155;28;20577;-84
2022/09/01 04:26:09;;;;;;;1.83;1.25;;;;;;;15.10;67.84;101749.50;5068609;28;20024;-84
2022/09/01 04:28:40;;;;;;;4.00;1.33;;;;;;;15.11;67.71;101747.72;5065993;28;20070;-83
2022/09/01 04:31:08;;;;;;;3.97;1.40;;;;;;;15.08;68.01;101750.66;5063667;28;20035;-83
2022/09/01 04:33:37;;;;;;;2.95;1.52;;;;;;;15.04;68.44;101750.16;5060316;28;20035;-84
2022/09/01 04:36:29;;;;;;;3.33;1.42;;;;;;;15.03;68.60;101750.31;5053412;28;20542;-84
2022/09/01 04:39:01;;;;;;;4.43;1.45;;;;;;;14.97;68.77;101749.16;5054962;28;20043;-84
2022/09/01 04:41:30;;;;;;;4.75;1.55;;;;;;;14.95;68.66;101749.31;5063928;28;20102;-84
2022/09/01 04:44:03;;;;;;;3.20;1.38;;;;;;;14.91;69.01;101748.00;5055457;28;20032;-83
2022/09/01 04:46:34;;;;;;;4.43;1.20;;;;;;;14.92;68.81;101751.47;5048356;28;20040;-83
2022/09/01 04:49:05;;;;;;;3.92;1.60;;;;;;;14.91;69.12;101750.63;5050888;28;20036;-84
2022/09/01 04:51:31;;;;;;;5.15;1.88;;;;;;;14.91;68.92;101752.44;5064891;28;20354;-83
2022/09/01 04:53:57;;;;;;;5.13;1.80;;;;;;;14.82;69.39;101756.00;5068037;28;20485;-83
2022/09/01 04:56:25;;;;;;;4.72;1.95;;;;;;;14.73;69.91;101757.78;5054765;28;20165;-83
2022/09/01 04:59:05;;;;;;;3.63;1.60;;;;;;;14.66;70.04;101749.78;5048686;28;20066;-83
2022/09/01 05:01:41;;;;;;;2.42;1.48;;;;;;;14.64;70.40;101750.91;5068918;28;20116;-84
2022/09/01 05:04:15;;;;;;;3.28;1.33;;;;;;;14.68;70.34;101754.84;5052954;28;22428;-84
2022/09/01 05:06:42;;;;;;;11.50;1.63;;;;;;;14.71;70.37;101757.94;5049551;28;20027;-82
2022/09/01 05:09:12;;;;;;;2.58;1.40;;;;;;;14.73;70.51;101761.22;5057088;28;20376;-84
2022/09/01 05:11:46;;;;;;;3.55;1.30;;;;;;;14.75;70.45;101761.88;5064013;28;20028;-84
2022/09/01 05:14:20;;;;;;;3.42;1.52;;;;;;;14.78;70.47;101758.91;5068703;28;21740;-84
2022/09/01 05:16:46;;;;;;;3.05;1.33;;;;;;;14.84;70.63;101754.03;5050381;28;20027;-84
2022/09/01 05:19:16;;;;;;;2.50;1.20;;;;;;;14.88;70.47;101758.81;5067799;28;20067;-82
2022/09/01 05:21:45;;;;;;;4.22;1.70;;;;;;;14.91;70.53;101761.06;5058549;28;20039;-83
2022/09/01 05:24:18;;;;;;;3.42;1.73;;;;;;;14.95;70.37;101757.16;5064330;28;20028;-84
2022/09/01 05:26:46;;;;;;;3.28;1.30;;;;;;;14.96;70.36;101763.22;5070005;28;20020;-84
2022/09/01 05:29:16;;;;;;;6.15;2.08;;;;;;;14.93;69.91;101759.09;5063688;28;20032;-82
2022/09/01 05:31:47;;;;;;;3.50;1.70;;;;;;;14.94;70.24;101759.94;5054186;28;20023;-84
2022/09/01 05:34:25;;;;;;;6.15;1.88;;;;;;;14.94;70.35;101763.38;5064175;28;20040;-83
2022/09/01 05:36:51;;;;;;;5.72;1.60;;;;;;;14.94;70.09;101763.38;5055182;28;20035;-83
2022/09/01 05:39:17;;;;;;;16.70;2.63;;;;;;;14.96;70.51;101766.63;5078865;28;20050;-83
2022/09/01 05:41:44;;;;;;;3.42;1.55;;;;;;;14.96;70.48;101766.63;5079554;28;20036;-82
2022/09/01 05:44:10;;;;;;;4.18;1.60;;;;;;;14.99;70.54;101774.16;5078064;28;20028;-83
2022/09/01 05:46:38;;;;;;;4.63;1.23;;;;;;;15.04;70.46;101772.84;5077196;28;20028;-84
2022/09/01 05:49:05;;;;;;;7.32;1.65;;;;;;;15.05;70.25;101772.69;5063864;28;20059;-83
2022/09/01 05:51:35;;;;;;;4.30;1.73;;;;;;;15.09;70.25;101767.97;5067458;28;20032;-84
2022/09/01 05:54:01;;;;;;;2.67;1.30;;;;;;;15.08;70.26;101772.34;5050734;28;20035;-83
2022/09/01 05:56:30;;;;;;;2.78;1.63;;;;;;;15.11;70.05;101776.47;5047159;28;20024;-83
2022/09/01 05:58:58;;;;;;;3.45;1.73;;;;;;;15.16;70.42;101776.75;5059737;28;20409;-84
2022/09/01 06:01:27;;;;;;;2.38;1.70;;;;;;;15.18;70.44;101783.47;5068450;28;20235;-84
2022/09/01 06:03:55;;;;;;;5.40;1.75;;;;;;;15.23;69.90;101779.56;5061842;28;20081;-84
2022/09/01 06:06:29;;;;;;;3.85;1.95;;;;;;;15.26;69.83;101776.63;5057653;28;20170;-84
2022/09/01 06:08:57;;;;;;;11.45;2.05;;;;;;;15.39;69.48;101779.56;5049196;28;20032;-84
2022/09/01 06:11:27;;;;;;;7.97;2.00;;;;;;;15.46;69.26;101784.94;5047028;28;20577;-83
2022/09/01 06:13:57;;;;;;;4.75;1.63;;;;;;;15.34;69.48;101779.22;5061951;28;20044;-85
2022/09/01 06:16:24;;;;;;;7.07;1.67;;;;;;;15.44;69.21;101774.66;5049730;28;20032;-84
2022/09/01 06:18:52;;;;;;;2.83;1.52;;;;;;;15.48;69.04;101781.19;5042765;28;20024;-83
2022/09/01 06:21:21;;;;;;;7.93;2.08;;;;;;;15.56;69.26;101781.19;5062325;28;20505;-84
2022/09/01 06:23:49;;;;;;;6.90;1.85;;;;;;;15.60;69.07;101780.88;5059676;28;20093;-84
2022/09/01 06:26:22;;;;;;;6.10;1.80;;;;;;;15.69;68.46;101780.69;5059638;28;20078;-84
2022/09/01 06:28:53;;;;;;;3.88;1.77;;;;;;;15.64;68.97;101779.53;5062363;28;20059;-84
2022/09/01 06:31:24;;;;;;;4.07;1.83;;;;;;;15.66;68.95;101777.56;5051408;28;20071;-83
2022/09/01 06:33:52;;;;;;;8.77;2.13;;;;;;;15.80;68.76;101778.72;5049126;28;20649;-84
2022/09/01 06:36:22;;;;;;;6.53;1.95;;;;;;;15.84;68.64;101780.00;5060035;28;20532;-85
2022/09/01 06:38:50;;;;;;;7.15;3.00;;;;;;;15.96;68.40;101786.53;5043551;28;20035;-84
2022/09/01 06:41:18;;;;;;;11.20;5.65;;;;;;;16.10;68.11;101793.66;5064364;28;20054;-83
2022/09/01 06:43:52;;;;;;;6.22;2.28;;;;;;;16.26;67.54;101786.78;5061757;28;20035;-83
2022/09/01 06:46:19;;;;;;;12.15;2.35;;;;;;;16.45;67.26;101788.16;5063354;28;20039;-83
2022/09/01 06:48:45;;;;;;;5.32;1.95;;;;;;;16.66;66.55;101795.41;5046951;28;20028;-83
2022/09/01 06:51:16;;;;;;;7.80;1.77;;;;;;;16.88;64.99;101783.38;5058082;28;20469;-84
2022/09/01 06:53:43;;;;;;;5.25;1.45;;;;;;;17.16;64.87;101788.91;5047131;28;20032;-84
2022/09/01 06:56:12;;;;;;;10.23;1.80;;;;;;;17.52;63.20;101785.66;5052565;28;20039;-84
2022/09/01 06:58:40;;;;;;;7.40;2.08;;;;;;;18.14;61.30;101789.81;5062626;28;20040;-84
2022/09/01 07:01:15;;;;;;;5.45;1.40;;;;;;;18.86;59.11;101788.25;5058947;28;20036;-83
2022/09/01 07:03:43;;;;;;;6.88;1.73;;;;;;;19.72;56.85;101789.94;5046506;28;20033;-85
2022/09/01 07:06:17;;;;;;;4.82;1.75;;;;;;;20.56;53.94;101788.94;5063975;28;20044;-84
2022/09/01 07:09:03;;;;;;;4.07;1.73;;;;;;;21.08;51.54;101784.81;5061618;28;20067;-84
2022/09/01 07:11:35;;;;;;;4.80;1.77;;;;;;;21.47;50.71;101785.84;5063422;28;20035;-83
2022/09/01 07:14:03;;;;;;;6.53;1.65;;;;;;;21.61;49.34;101781.38;5045027;28;20028;-84
2022/09/01 07:16:35;;;;;;;4.43;1.40;;;;;;;22.07;48.64;101784.91;5061246;28;20059;-84
2022/09/01 07:19:02;;;;;;;4.90;1.77;;;;;;;22.44;47.52;101782.53;5051296;28;20036;-84
2022/09/01 07:21:31;;;;;;;5.28;1.58;;;;;;;22.84;46.96;101775.16;5063096;28;20063;-82
2022/09/01 07:24:00;;;;;;;10.43;1.77;;;;;;;23.24;46.10;101780.16;5050095;28;20036;-84
2022/09/01 07:26:27;;;;;;;7.30;1.65;;;;;;;23.32;46.10;101773.81;5046985;28;20030;-85
2022/09/01 07:28:55;;;;;;;4.60;1.58;;;;;;;23.91;45.05;101771.59;5042801;28;20024;-83
2022/09/01 07:31:30;;;;;;;4.68;1.40;;;;;;;24.31;44.05;101768.44;5062445;28;20032;-84
2022/09/01 07:34:00;;;;;;;6.20;1.73;;;;;;;24.64;42.97;101769.88;5046023;28;20031;-85
2022/09/01 07:36:26;;;;;;;3.03;1.10;;;;;;;24.95;42.23;101767.97;5043270;28;21070;-85
2022/09/01 07:38:55;;;;;;;2.60;1.52;;;;;;;24.95;42.18;101770.63;5048683;28;20047;-85
2022/09/01 07:41:24;;;;;;;6.85;1.20;;;;;;;25.24;42.11;101761.78;5067568;28;20024;-84
2022/09/01 07:44:11;;;;;;;3.70;1.50;;;;;;;25.28;41.49;101771.94;5066537;28;20500;-81
2022/09/01 07:47:14;;;;;;;5.03;1.10;;;;;;;25.10;42.13;101772.81;5069059;28;20043;-85
2022/09/01 07:49:40;;;;;;;6.45;1.55;;;;;;;25.22;41.58;101760.34;5067580;28;20039;-83
2022/09/01 07:52:06;;;;;;;4.50;1.13;;;;;;;24.99;41.29;101772.56;5061003;28;20031;-84
2022/09/01 07:54:36;;;;;;;6.28;1.42;;;;;;;25.12;41.41;101776.06;5052261;28;20031;-86
2022/09/01 07:57:03;;;;;;;4.78;1.25;;;;;;;25.39;41.51;101774.59;5054165;28;20031;-87
2022/09/01 07:59:34;;;;;;;4.93;1.42;;;;;;;25.41;40.91;101774.34;5046692;28;20093;-85
2022/09/01 08:02:20;;;;;;;6.47;1.30;;;;;;;26.11;40.30;101767.31;5069849;28;20136;-86
2022/09/01 08:04:47;;;;;;;8.10;1.38;;;;;;;26.15;40.02;101771.13;5061203;28;20027;-83
2022/09/01 08:07:15;;;;;;;4.63;1.20;;;;;;;25.93;39.55;101776.25;5066222;28;20120;-84
2022/09/01 08:09:41;;;;;;;3.42;1.35;;;;;;;26.28;39.31;101775.34;5055288;28;20036;-86
2022/09/01 08:12:07;;;;;;;5.10;1.45;;;;;;;25.43;40.32;101783.72;5065122;28;20024;-84
2022/09/01 08:14:37;;;;;;;2.13;1.50;;;;;;;25.23;39.98;101784.03;5047708;28;20040;-85
2022/09/01 08:17:03;;;;;;;9.85;1.98;;;;;;;25.67;40.17;101783.66;5052139;28;20440;-86
2022/09/01 08:19:29;;;;;;;4.07;1.52;;;;;;;25.93;39.78;101785.03;5064622;28;20043;-85
2022/09/01 08:22:09;;;;;;;11.05;1.70;;;;;;;25.86;40.05;101783.53;5053035;28;20030;-85
2022/09/01 08:25:09;;;;;;;2.75;1.13;;;;;;;26.76;39.15;101777.53;5062153;28;20039;-86
2022/09/01 08:27:37;;;;;;;3.83;1.20;;;;;;;26.72;38.48;101772.94;5065857;28;20034;-82
2022/09/01 08:30:09;;;;;;;6.88;1.58;;;;;;;26.65;38.66;101773.09;5049599;28;20400;-85
2022/09/01 08:32:36;;;;;;;5.88;1.30;;;;;;;27.07;38.29;101769.22;5064688;28;20028;-85
2022/09/01 08:35:03;;;;;;;4.35;1.20;;;;;;;27.11;37.31;101768.50;5084011;28;20086;-85
2022/09/01 08:37:30;;;;;;;3.45;1.20;;;;;;;27.16;37.29;101771.25;5048926;28;20115;-83
2022/09/01 08:39:55;;;;;;;7.93;1.00;;;;;;;27.58;36.83;101768.13;5059448;28;20067;-85
2022/09/01 08:42:48;;;;;;;3.70;1.17;;;;;;;27.93;36.67;101766.16;5055092;28;20070;-86
2022/09/01 08:45:23;;;;;;;6.53;1.15;;;;;;;27.76;35.59;101767.00;5062483;28;20028;-85
2022/09/01 08:47:55;;;;;;;1.70;0.98;;;;;;;27.87;35.97;101767.13;5052450;28;20425;-85
2022/09/01 08:50:21;;;;;;;2.78;1.02;;;;;;;28.05;35.60;101763.34;5047009;28;20036;-85
2022/09/01 08:53:26;;;;;;;5.72;1.45;;;;;;;28.19;36.04;101756.56;5054232;28;20035;-85
2022/09/01 08:55:55;;;;;;;10.25;1.67;;;;;;;28.23;34.36;101762.22;5062320;28;20028;-85
2022/09/01 08:58:21;;;;;;;4.63;0.90;;;;;;;27.64;33.69;101753.00;5051086;28;20032;-85
2022/09/01 09:01:26;;;;;;;2.47;1.00;;;;;;;27.33;34.45;101768.59;5088659;28;20500;-84
2022/09/01 09:04:34;;;;;;;2.08;1.10;;;;;;;26.14;34.78;101764.97;5071417;28;20058;-84
2022/09/01 09:07:30;;;;;;;3.25;1.05;;;;;;;26.21;35.46;101767.50;5051190;28;20036;-85
2022/09/01 09:10:04;;;;;;;2.00;0.80;;;;;;;26.09;35.28;101762.25;5048917;28;20561;-82
2022/09/01 09:12:51;;;;;;;2.58;1.63;;;;;;;26.44;35.46;101758.59;5067315;28;20036;-84
2022/09/01 09:15:26;;;;;;;4.65;1.02;;;;;;;26.56;34.56;101754.03;5058635;28;20056;-82
2022/09/01 09:18:10;;;;;;;4.20;0.93;;;;;;;26.64;33.72;101757.41;5050661;28;20147;-87
2022/09/01 09:20:36;;;;;;;1.85;0.73;;;;;;;26.91;34.05;101746.91;5065612;28;21667;-86
2022/09/01 09:23:21;;;;;;;3.15;0.98;;;;;;;27.53;33.26;101745.94;5040084;28;20029;-84
2022/09/01 09:25:47;;;;;;;3.13;0.80;;;;;;;27.43;32.08;101743.16;5053641;28;20075;-88
2022/09/01 09:28:13;;;;;;;2.80;0.90;;;;;;;26.44;32.23;101745.31;5049310;28;20020;-82
2022/09/01 09:30:39;;;;;;;1.50;0.85;;;;;;;25.96;32.85;101742.06;5049367;28;20037;-83
2022/09/01 09:33:09;;;;;;;5.85;1.80;;;;;;;26.33;33.44;101740.88;5066563;28;20111;-85
2022/09/01 09:35:38;;;;;;;2.70;1.40;;;;;;;26.66;32.18;101731.38;5064341;28;20070;-83
2022/09/01 09:38:21;;;;;;;3.55;0.93;;;;;;;26.64;33.03;101728.94;5055455;28;20030;-83
2022/09/01 09:41:07;;;;;;;2.83;0.80;;;;;;;27.07;32.27;101729.31;5060547;28;20044;-85
2022/09/01 09:43:45;;;;;;;2.63;0.63;;;;;;;27.00;32.08;101724.97;5061188;28;20033;-83
2022/09/01 09:46:26;;;;;;;5.72;0.82;;;;;;;26.72;32.00;101723.22;5068647;28;20042;-80
2022/09/01 09:49:09;;;;;;;1.98;0.98;;;;;;;26.79;31.47;101726.50;5068472;28;20042;-85
2022/09/01 09:51:35;;;;;;;3.33;0.88;;;;;;;27.23;31.18;101711.69;5052221;28;20036;-84
2022/09/01 09:54:14;;;;;;;1.55;0.82;;;;;;;26.23;32.74;101717.56;5050958;28;20131;-87
2022/09/01 09:56:40;;;;;;;3.83;0.70;;;;;;;25.95;33.03;101713.06;5065610;28;20480;-86
2022/09/01 09:59:27;;;;;;;11.35;0.80;;;;;;;25.81;33.05;101715.97;5067688;28;20047;-84
2022/09/01 10:02:16;;;;;;;4.47;0.80;;;;;;;26.09;32.37;101711.75;5061887;28;20119;-84
2022/09/01 10:04:41;;;;;;;4.95;0.57;;;;;;;26.45;31.98;101698.25;5049275;28;20032;-84
2022/09/01 10:07:25;;;;;;;3.63;0.88;;;;;;;26.49;31.82;101699.41;5048657;28;20020;-86
2022/09/01 10:09:53;;;;;;;2.22;0.60;;;;;;;26.67;32.39;101701.03;5047059;28;20079;-83
2022/09/01 10:12:19;;;;;;;3.50;0.50;;;;;;;26.48;30.82;101690.63;5047821;28;20028;-87
2022/09/01 10:14:51;;;;;;;3.10;1.50;;;;;;;26.53;30.45;101690.69;5066820;28;20086;-86
2022/09/01 10:17:23;;;;;;;3.28;0.90;;;;;;;26.33;30.72;101691.16;5065563;28;20553;-82
2022/09/01 10:20:04;;;;;;;3.50;0.70;;;;;;;26.49;31.61;101688.78;5044918;28;20032;-85
2022/09/01 10:22:31;;;;;;;1.58;0.60;;;;;;;26.80;31.20;101690.06;5062845;28;20032;-85
2022/09/01 10:24:59;;;;;;;1.40;0.50;;;;;;;26.94;29.08;101685.25;5045686;28;20081;-85
2022/09/01 10:27:29;;;;;;;1.27;0.80;;;;;;;26.82;29.84;101690.63;5060538;28;20036;-84
2022/09/01 10:30:06;;;;;;;2.78;0.80;;;;;;;27.00;30.31;101693.03;5050939;28;20040;-85
2022/09/01 10:32:42;;;;;;;2.20;0.77;;;;;;;27.05;29.13;101692.31;5048863;28;21532;-84
2022/09/01 10:35:13;;;;;;;2.33;0.80;;;;;;;27.41;29.04;101690.16;5062516;28;20036;-83
2022/09/01 10:37:39;;;;;;;1.27;0.60;;;;;;;27.45;28.57;101687.78;5058407;28;20032;-84
2022/09/01 10:40:20;;;;;;;2.58;0.70;;;;;;;27.48;29.45;101687.28;5055970;28;20028;-84
2022/09/01 10:42:53;;;;;;;1.52;0.68;;;;;;;27.45;28.37;101685.13;5064822;28;20047;-86
2022/09/01 10:45:38;;;;;;;2.20;0.98;;;;;;;27.43;28.70;101676.59;5058599;28;20037;-84
2022/09/01 10:48:25;;;;;;;3.47;0.70;;;;;;;27.06;29.27;101669.97;5067078;28;20533;-85
2022/09/01 10:50:54;;;;;;;4.18;1.48;;;;;;;27.07;29.32;101668.91;5068598;28;20055;-84
2022/09/01 10:53:32;;;;;;;3.88;0.82;;;;;;;26.36;28.96;101669.44;5067589;28;20123;-83
2022/09/01 10:56:23;;;;;;;1.67;0.68;;;;;;;26.37;29.69;101660.41;5070794;28;20268;-84
2022/09/01 10:59:08;;;;;;;3.05;1.00;;;;;;;26.44;29.75;101668.22;5052792;28;20043;-85
2022/09/01 11:01:40;;;;;;;2.38;0.88;;;;;;;26.47;29.39;101666.94;5067349;28;20040;-84
2022/09/01 11:04:16;;;;;;;2.40;0.85;;;;;;;26.43;29.23;101663.97;5068892;28;20086;-84
2022/09/01 11:06:53;;;;;;;3.80;0.68;;;;;;;26.75;28.97;101666.09;5068857;28;20633;-85
2022/09/01 11:09:26;;;;;;;1.70;1.00;;;;;;;26.56;29.40;101668.13;5069376;28;20107;-83
2022/09/01 11:12:09;;;;;;;;;;;;;;;26.49;29.57;101665.66;5065430;28;20095;-85
2022/09/01 11:14:56;;;;;;;1.30;0.70;;;;;;;26.84;28.42;101651.28;5054338;28;19942;-86
2022/09/01 11:17:26;;;;;;;6.20;1.08;;;;;;;26.73;29.76;101652.19;5073671;28;20036;-85
2022/09/01 11:20:18;;;;;;;4.85;0.82;;;;;;;27.06;28.65;101655.84;5087449;28;20034;-86
2022/09/01 11:22:57;;;;;;;3.03;1.00;;;;;;;27.22;28.24;101648.88;5060688;28;21299;-81
2022/09/01 11:25:35;;;;;;;2.88;1.20;;;;;;;27.08;28.60;101645.78;5068323;28;20047;-84
2022/09/01 11:28:15;;;;;;;4.28;0.90;;;;;;;26.89;29.25;101655.91;5074723;28;20032;-83
2022/09/01 11:30:59;;;;;;;4.85;0.73;;;;;;;27.13;28.92;101648.50;5087163;28;20115;-84
2022/09/01 11:33:49;;;;;;;8.20;0.98;;;;;;;27.01;29.42;101648.59;5068937;28;20024;-83
2022/09/01 11:36:51;;;;;;;3.47;0.75;;;;;;;27.03;29.43;101638.53;5053011;28;20502;-85
2022/09/01 11:39:16;;;;;;;1.77;0.77;;;;;;;27.24;28.86;101636.94;4977039;28;20049;-83
2022/09/01 11:41:57;;;;;;;1.05;0.77;;;;;;;27.20;28.77;101635.81;5051732;28;20126;-85
2022/09/01 11:44:38;;;;;;;3.53;1.20;;;;;;;27.19;29.00;101642.19;5062756;28;20553;-84
2022/09/01 11:47:26;;;;;;;11.05;0.90;;;;;;;27.43;29.04;101637.44;5059019;28;20035;-86
2022/09/01 11:49:59;;;;;;;2.55;0.88;;;;;;;27.32;27.91;101641.03;5073579;28;20082;-84